createdAt,value
2019-03-18T00:00:14.346Z,0.00
2019-03-18T00:01:14.353Z,0.00
2019-03-18T00:02:14.327Z,0.00
2019-03-18T00:03:14.317Z,0.00
2019-03-18T00:04:14.302Z,0.00
2019-03-18T00:05:14.296Z,0.00
2019-03-18T00:06:14.293Z,0.00
2019-03-18T00:07:14.271Z,0.00
2019-03-18T00:08:14.258Z,0.00
2019-03-18T00:09:14.248Z,0.00
2019-03-18T00:10:14.240Z,0.00
2019-03-18T00:11:14.235Z,0.00
2019-03-18T00:12:14.215Z,0.00
2019-03-18T00:13:14.207Z,0.00
2019-03-18T00:14:14.196Z,0.00
2019-03-18T00:15:14.183Z,0.00
2019-03-18T00:16:14.183Z,0.00
2019-03-18T00:17:14.165Z,0.00
2019-03-18T00:18:14.153Z,0.00
2019-03-18T00:19:14.143Z,0.00
2019-03-18T00:20:14.135Z,0.00
2019-03-18T00:21:14.131Z,0.00
2019-03-18T00:22:14.108Z,0.00
2019-03-18T00:23:14.098Z,0.00
2019-03-18T00:24:14.093Z,0.00
2019-03-18T00:25:14.078Z,0.00
2019-03-18T00:26:14.077Z,0.00
2019-03-18T00:27:14.059Z,0.00
2019-03-18T00:28:14.074Z,0.00
2019-03-18T00:29:14.035Z,0.00
2019-03-18T00:30:14.023Z,0.00
2019-03-18T00:31:14.024Z,0.00
2019-03-18T00:32:14.006Z,0.00
2019-03-18T00:33:13.988Z,0.00
2019-03-18T00:34:13.977Z,0.00
2019-03-18T00:35:13.967Z,0.00
2019-03-18T00:36:13.955Z,0.00
2019-03-18T00:37:13.957Z,0.00
2019-03-18T00:38:13.934Z,0.00
2019-03-18T00:39:13.923Z,0.00
2019-03-18T00:40:13.915Z,0.00
2019-03-18T00:41:13.906Z,0.00
2019-03-18T00:42:13.900Z,0.00
2019-03-18T00:43:13.880Z,0.00
2019-03-18T00:44:13.873Z,0.00
2019-03-18T00:45:15.442Z,0.00
2019-03-18T00:46:13.847Z,0.00
2019-03-18T00:47:14.027Z,0.00
2019-03-18T00:48:13.825Z,0.00
2019-03-18T00:49:13.817Z,0.00
2019-03-18T00:50:13.803Z,0.00
2019-03-18T00:51:13.869Z,0.00
2019-03-18T00:52:13.786Z,0.00
2019-03-18T00:53:13.778Z,0.00
2019-03-18T00:54:13.760Z,0.00
2019-03-18T00:55:13.753Z,0.00
2019-03-18T00:56:13.740Z,0.00
2019-03-18T00:57:13.730Z,0.00
2019-03-18T00:58:13.726Z,0.00
2019-03-18T00:59:13.709Z,0.00
2019-03-18T01:00:13.694Z,0.00
2019-03-18T01:01:13.715Z,0.00
2019-03-18T01:02:13.677Z,0.00
2019-03-18T01:03:13.670Z,0.00
2019-03-18T01:04:13.651Z,0.00
2019-03-18T01:05:13.641Z,0.00
2019-03-18T01:06:13.631Z,0.00
2019-03-18T01:07:13.619Z,0.00
2019-03-18T01:08:13.617Z,0.00
2019-03-18T01:09:13.600Z,0.00
2019-03-18T01:10:13.594Z,0.00
2019-03-18T01:11:13.576Z,0.00
2019-03-18T01:12:13.566Z,0.00
2019-03-18T01:13:13.572Z,0.00
2019-03-18T01:14:13.545Z,0.00
2019-03-18T01:15:13.536Z,0.00
2019-03-18T01:16:13.526Z,0.00
2019-03-18T01:17:13.510Z,0.00
2019-03-18T01:18:13.511Z,0.00
2019-03-18T01:19:13.490Z,0.00
2019-03-18T01:20:13.485Z,0.00
2019-03-18T01:21:13.466Z,0.00
2019-03-18T01:22:13.503Z,0.00
2019-03-18T01:23:13.466Z,0.00
2019-03-18T01:24:13.436Z,0.00
2019-03-18T01:25:13.423Z,0.00
2019-03-18T01:26:13.413Z,0.00
2019-03-18T01:27:13.405Z,0.00
2019-03-18T01:28:13.398Z,0.00
2019-03-18T01:29:13.384Z,0.00
2019-03-18T01:30:13.374Z,0.00
2019-03-18T01:31:13.359Z,0.00
2019-03-18T01:32:13.353Z,0.00
2019-03-18T01:33:13.344Z,0.00
2019-03-18T01:34:13.331Z,0.00
2019-03-18T01:35:13.317Z,0.00
2019-03-18T01:36:13.309Z,0.00
2019-03-18T01:37:13.297Z,0.00
2019-03-18T01:38:13.292Z,0.00
2019-03-18T01:39:13.276Z,0.00
2019-03-18T01:40:13.264Z,0.00
2019-03-18T01:41:13.257Z,0.00
2019-03-18T01:42:13.240Z,0.00
2019-03-18T01:43:13.240Z,0.00
2019-03-18T01:44:13.219Z,0.00
2019-03-18T01:45:13.212Z,0.00
2019-03-18T01:46:13.198Z,0.00
2019-03-18T01:47:13.189Z,0.00
2019-03-18T01:48:13.187Z,0.00
2019-03-18T01:49:13.165Z,0.00
2019-03-18T01:50:13.160Z,0.00
2019-03-18T01:51:13.145Z,0.00
2019-03-18T01:52:13.135Z,0.00
2019-03-18T01:53:13.140Z,0.00
2019-03-18T01:54:13.111Z,0.00
2019-03-18T01:55:13.100Z,0.00
2019-03-18T01:56:13.089Z,0.00
2019-03-18T01:57:13.079Z,0.00
2019-03-18T01:58:13.076Z,0.00
2019-03-18T01:59:13.061Z,0.00
2019-03-18T02:00:13.052Z,0.00
2019-03-18T02:01:13.037Z,0.00
2019-03-18T02:02:13.027Z,0.00
2019-03-18T02:03:13.023Z,0.00
2019-03-18T02:04:13.016Z,0.00
2019-03-18T02:05:12.994Z,0.00
2019-03-18T02:06:12.983Z,0.00
2019-03-18T02:07:12.971Z,0.00
2019-03-18T02:08:12.962Z,0.00
2019-03-18T02:09:12.960Z,0.00
2019-03-18T02:10:12.943Z,0.00
2019-03-18T02:11:12.931Z,0.00
2019-03-18T02:12:12.921Z,0.00
2019-03-18T02:13:12.908Z,0.00
2019-03-18T02:14:12.904Z,0.00
2019-03-18T02:15:12.894Z,0.00
2019-03-18T02:16:12.875Z,0.00
2019-03-18T02:17:12.868Z,0.00
2019-03-18T02:18:12.853Z,0.00
2019-03-18T02:19:12.852Z,0.00
2019-03-18T02:20:12.832Z,0.00
2019-03-18T02:21:12.853Z,0.00
2019-03-18T02:22:12.811Z,0.00
2019-03-18T02:23:12.808Z,0.00
2019-03-18T02:24:12.801Z,0.00
2019-03-18T02:25:12.779Z,0.00
2019-03-18T02:26:12.768Z,0.00
2019-03-18T02:27:12.755Z,0.00
2019-03-18T02:28:12.745Z,0.00
2019-03-18T02:29:12.748Z,0.00
2019-03-18T02:30:12.725Z,0.00
2019-03-18T02:31:12.710Z,0.00
2019-03-18T02:32:12.702Z,0.00
2019-03-18T02:33:12.692Z,0.00
2019-03-18T02:34:12.692Z,0.00
2019-03-18T02:35:12.669Z,0.00
2019-03-18T02:36:12.658Z,0.00
2019-03-18T02:37:12.647Z,0.00
2019-03-18T02:38:12.634Z,0.00
2019-03-18T02:39:12.634Z,0.00
2019-03-18T02:40:12.617Z,0.00
2019-03-18T02:41:12.603Z,0.00
2019-03-18T02:42:12.635Z,0.00
2019-03-18T02:43:12.585Z,0.00
2019-03-18T02:44:12.585Z,0.00
2019-03-18T02:45:12.670Z,0.00
2019-03-18T02:46:12.560Z,0.00
2019-03-18T02:47:12.537Z,0.00
2019-03-18T02:48:12.526Z,0.00
2019-03-18T02:49:12.531Z,0.00
2019-03-18T02:50:12.506Z,0.00
2019-03-18T02:51:12.501Z,0.00
2019-03-18T02:52:12.483Z,0.00
2019-03-18T02:53:12.471Z,0.00
2019-03-18T02:54:12.483Z,0.00
2019-03-18T02:55:12.451Z,0.00
2019-03-18T02:56:12.450Z,0.00
2019-03-18T02:57:12.430Z,0.00
2019-03-18T02:58:12.418Z,0.00
2019-03-18T02:59:12.417Z,0.00
2019-03-18T03:00:12.407Z,0.00
2019-03-18T03:01:12.387Z,0.00
2019-03-18T03:02:12.376Z,0.00
2019-03-18T03:03:12.373Z,0.00
2019-03-18T03:04:12.371Z,0.00
2019-03-18T03:05:12.444Z,0.00
2019-03-18T03:06:12.332Z,0.00
2019-03-18T03:07:12.359Z,0.00
2019-03-18T03:08:12.314Z,0.00
2019-03-18T03:09:12.318Z,0.00
2019-03-18T03:10:12.449Z,0.00
2019-03-18T03:11:12.278Z,0.00
2019-03-18T03:12:12.287Z,0.00
2019-03-18T03:13:12.254Z,0.00
2019-03-18T03:14:12.258Z,0.00
2019-03-18T03:15:12.239Z,0.00
2019-03-18T03:16:25.703Z,0.00
2019-03-18T03:17:13.213Z,0.00
2019-03-18T03:18:12.206Z,0.00
2019-03-18T03:19:12.201Z,0.00
2019-03-18T03:20:12.188Z,0.00
2019-03-18T03:21:12.172Z,0.00
2019-03-18T03:22:12.161Z,0.00
2019-03-18T03:23:12.288Z,0.00
2019-03-18T03:24:12.150Z,0.00
2019-03-18T03:25:12.129Z,0.00
2019-03-18T03:26:12.125Z,0.00
2019-03-18T03:27:12.102Z,0.00
2019-03-18T03:28:12.091Z,0.00
2019-03-18T03:29:12.099Z,0.00
2019-03-18T03:30:12.250Z,0.00
2019-03-18T03:31:12.066Z,0.00
2019-03-18T03:32:12.050Z,0.00
2019-03-18T03:33:12.039Z,0.00
2019-03-18T03:34:13.959Z,0.00
2019-03-18T03:35:12.087Z,0.00
2019-03-18T03:36:12.007Z,0.00
2019-03-18T03:37:11.996Z,0.00
2019-03-18T03:38:11.982Z,0.00
2019-03-18T03:39:11.984Z,0.00
2019-03-18T03:40:11.970Z,0.00
2019-03-18T03:41:11.957Z,0.00
2019-03-18T03:42:11.940Z,0.00
2019-03-18T03:43:11.932Z,0.00
2019-03-18T03:44:11.919Z,0.00
2019-03-18T03:45:11.920Z,0.00
2019-03-18T03:46:11.897Z,0.00
2019-03-18T03:47:11.898Z,0.00
2019-03-18T03:48:11.890Z,0.00
2019-03-18T03:49:11.868Z,0.00
2019-03-18T03:50:11.864Z,0.00
2019-03-18T03:51:11.868Z,0.00
2019-03-18T03:52:11.833Z,0.00
2019-03-18T03:53:11.826Z,0.00
2019-03-18T03:54:11.811Z,0.00
2019-03-18T03:55:11.817Z,0.00
2019-03-18T03:56:11.789Z,0.00
2019-03-18T03:57:11.806Z,0.00
2019-03-18T03:58:11.805Z,0.00
2019-03-18T03:59:11.756Z,0.00
2019-03-18T04:00:11.755Z,0.00
2019-03-18T04:01:11.733Z,0.00
2019-03-18T04:02:11.722Z,0.00
2019-03-18T04:03:11.713Z,0.00
2019-03-18T04:04:11.702Z,0.00
2019-03-18T04:05:11.698Z,0.00
2019-03-18T04:06:11.680Z,0.00
2019-03-18T04:07:11.672Z,0.00
2019-03-18T04:08:11.656Z,0.00
2019-03-18T04:09:11.646Z,0.00
2019-03-18T04:10:11.646Z,0.00
2019-03-18T04:11:11.625Z,0.00
2019-03-18T04:12:11.618Z,0.00
2019-03-18T04:13:11.604Z,0.00
2019-03-18T04:14:11.595Z,0.00
2019-03-18T04:15:11.589Z,0.00
2019-03-18T04:16:11.594Z,0.00
2019-03-18T04:17:11.566Z,0.00
2019-03-18T04:18:11.548Z,0.00
2019-03-18T04:19:11.538Z,0.00
2019-03-18T04:20:11.536Z,0.00
2019-03-18T04:21:11.517Z,0.00
2019-03-18T04:22:11.506Z,0.00
2019-03-18T04:23:11.493Z,0.00
2019-03-18T04:24:11.485Z,0.00
2019-03-18T04:25:11.486Z,0.00
2019-03-18T04:26:11.462Z,0.00
2019-03-18T04:27:11.449Z,0.00
2019-03-18T04:28:11.442Z,0.00
2019-03-18T04:29:11.505Z,0.00
2019-03-18T04:30:11.427Z,0.00
2019-03-18T04:31:11.412Z,0.00
2019-03-18T04:32:11.401Z,0.00
2019-03-18T04:33:11.386Z,0.00
2019-03-18T04:34:11.375Z,0.00
2019-03-18T04:35:11.375Z,0.00
2019-03-18T04:36:11.355Z,0.00
2019-03-18T04:37:11.348Z,0.00
2019-03-18T04:38:11.338Z,0.00
2019-03-18T04:39:11.322Z,0.00
2019-03-18T04:40:11.318Z,0.00
2019-03-18T04:41:11.296Z,0.00
2019-03-18T04:42:11.290Z,0.00
2019-03-18T04:43:11.275Z,0.00
2019-03-18T04:44:11.263Z,0.00
2019-03-18T04:45:11.262Z,0.00
2019-03-18T04:46:11.246Z,0.00
2019-03-18T04:47:14.509Z,0.00
2019-03-18T04:48:11.221Z,0.00
2019-03-18T04:49:11.210Z,0.00
2019-03-18T04:50:11.211Z,0.00
2019-03-18T04:51:11.193Z,0.00
2019-03-18T04:52:11.177Z,0.00
2019-03-18T04:53:11.165Z,0.00
2019-03-18T04:54:11.158Z,4.00
2019-03-18T04:55:11.157Z,4.00
2019-03-18T04:56:11.134Z,4.00
2019-03-18T04:57:11.124Z,0.00
2019-03-18T04:58:11.112Z,4.00
2019-03-18T04:59:11.100Z,4.00
2019-03-18T05:00:11.101Z,4.00
2019-03-18T05:01:11.113Z,4.00
2019-03-18T05:02:11.067Z,4.00
2019-03-18T05:03:11.058Z,8.00
2019-03-18T05:04:11.049Z,8.00
2019-03-18T05:05:11.048Z,8.00
2019-03-18T05:06:11.025Z,8.00
2019-03-18T05:07:11.017Z,8.00
2019-03-18T05:08:11.006Z,8.00
2019-03-18T05:09:10.992Z,12.00
2019-03-18T05:10:11.005Z,12.00
2019-03-18T05:11:10.975Z,12.00
2019-03-18T05:12:10.961Z,16.00
2019-03-18T05:13:10.950Z,16.00
2019-03-18T05:14:10.940Z,20.00
2019-03-18T05:15:10.951Z,20.00
2019-03-18T05:16:10.916Z,20.00
2019-03-18T05:17:10.912Z,20.00
2019-03-18T05:18:10.895Z,24.00
2019-03-18T05:19:10.885Z,24.00
2019-03-18T05:20:10.883Z,28.00
2019-03-18T05:21:10.874Z,36.00
2019-03-18T05:22:10.852Z,36.00
2019-03-18T05:23:10.841Z,36.00
2019-03-18T05:24:10.831Z,36.00
2019-03-18T05:25:10.823Z,36.00
2019-03-18T05:26:10.817Z,36.00
2019-03-18T05:27:10.797Z,40.00
2019-03-18T05:28:10.789Z,48.00
2019-03-18T05:29:10.774Z,40.00
2019-03-18T05:30:10.765Z,40.00
2019-03-18T05:31:10.765Z,44.00
2019-03-18T05:32:10.741Z,48.00
2019-03-18T05:33:10.729Z,60.00
2019-03-18T05:34:10.720Z,64.00
2019-03-18T05:35:10.712Z,68.00
2019-03-18T05:36:10.706Z,84.00
2019-03-18T05:37:10.687Z,84.00
2019-03-18T05:38:10.678Z,84.00
2019-03-18T05:39:10.677Z,88.00
2019-03-18T05:40:10.657Z,100.00
2019-03-18T05:41:10.656Z,124.00
2019-03-18T05:42:10.638Z,128.00
2019-03-18T05:43:10.624Z,140.00
2019-03-18T05:44:10.613Z,128.00
2019-03-18T05:45:10.607Z,116.00
2019-03-18T05:46:10.598Z,108.00
2019-03-18T05:47:10.581Z,104.00
2019-03-18T05:48:10.574Z,108.00
2019-03-18T05:49:10.596Z,88.00
2019-03-18T05:50:10.557Z,112.00
2019-03-18T05:51:10.547Z,136.00
2019-03-18T05:52:10.546Z,168.00
2019-03-18T05:53:10.513Z,204.00
2019-03-18T05:54:10.505Z,204.00
2019-03-18T05:55:10.531Z,156.00
2019-03-18T05:56:10.491Z,164.00
2019-03-18T05:57:10.470Z,188.00
2019-03-18T05:58:10.460Z,220.00
2019-03-18T05:59:10.448Z,236.00
2019-03-18T06:00:10.439Z,248.00
2019-03-18T06:01:10.438Z,272.00
2019-03-18T06:02:10.418Z,308.00
2019-03-18T06:03:10.408Z,356.00
2019-03-18T06:04:10.399Z,392.00
2019-03-18T06:05:10.400Z,388.00
2019-03-18T06:06:10.384Z,388.00
2019-03-18T06:07:10.363Z,380.00
2019-03-18T06:08:11.575Z,384.00
2019-03-18T06:09:10.344Z,408.00
2019-03-18T06:10:10.338Z,376.00
2019-03-18T06:11:10.333Z,364.00
2019-03-18T06:12:10.310Z,424.00
2019-03-18T06:13:10.301Z,472.00
2019-03-18T06:14:10.288Z,556.00
2019-03-18T06:15:10.278Z,632.00
2019-03-18T06:16:10.279Z,660.00
2019-03-18T06:17:10.268Z,676.00
2019-03-18T06:18:10.252Z,640.00
2019-03-18T06:19:10.242Z,572.00
2019-03-18T06:20:10.225Z,580.00
2019-03-18T06:21:10.225Z,592.00
2019-03-18T06:22:10.205Z,688.00
2019-03-18T06:23:10.192Z,676.00
2019-03-18T06:24:10.181Z,572.00
2019-03-18T06:25:10.179Z,616.00
2019-03-18T06:26:10.171Z,572.00
2019-03-18T06:27:10.152Z,512.00
2019-03-18T06:28:10.138Z,540.00
2019-03-18T06:29:10.129Z,700.00
2019-03-18T06:30:10.117Z,848.00
2019-03-18T06:31:10.118Z,828.00
2019-03-18T06:32:10.095Z,728.00
2019-03-18T06:33:10.083Z,680.00
2019-03-18T06:34:10.071Z,700.00
2019-03-18T06:35:10.067Z,596.00
2019-03-18T06:36:10.062Z,560.00
2019-03-18T06:37:10.042Z,504.00
2019-03-18T06:38:10.032Z,484.00
2019-03-18T06:39:10.021Z,496.00
2019-03-18T06:40:10.009Z,540.00
2019-03-18T06:41:10.007Z,544.00
2019-03-18T06:42:09.990Z,456.00
2019-03-18T06:43:09.985Z,392.00
2019-03-18T06:44:09.968Z,416.00
2019-03-18T06:45:09.957Z,452.00
2019-03-18T06:46:09.958Z,460.00
2019-03-18T06:47:09.945Z,408.00
2019-03-18T06:48:09.932Z,372.00
2019-03-18T06:49:09.922Z,360.00
2019-03-18T06:50:09.900Z,320.00
2019-03-18T06:51:09.891Z,352.00
2019-03-18T06:52:09.889Z,392.00
2019-03-18T06:53:09.872Z,496.00
2019-03-18T06:54:09.855Z,492.00
2019-03-18T06:55:09.847Z,548.00
2019-03-18T06:56:09.840Z,572.00
2019-03-18T06:57:09.834Z,532.00
2019-03-18T06:58:09.812Z,524.00
2019-03-18T06:59:09.801Z,516.00
2019-03-18T07:00:09.807Z,528.00
2019-03-18T07:01:09.780Z,524.00
2019-03-18T07:02:09.781Z,544.00
2019-03-18T07:03:09.759Z,616.00
2019-03-18T07:04:09.752Z,684.00
2019-03-18T07:05:09.738Z,812.00
2019-03-18T07:06:09.731Z,1144.00
2019-03-18T07:07:09.728Z,1248.00
2019-03-18T07:08:09.705Z,1168.00
2019-03-18T07:09:09.693Z,1172.00
2019-03-18T07:10:09.682Z,1224.00
2019-03-18T07:11:09.675Z,1364.00
2019-03-18T07:12:09.675Z,1496.00
2019-03-18T07:13:09.652Z,1616.00
2019-03-18T07:14:09.643Z,1520.00
2019-03-18T07:15:09.630Z,1416.00
2019-03-18T07:16:09.641Z,1236.00
2019-03-18T07:17:09.624Z,1108.00
2019-03-18T07:18:18.223Z,1076.00
2019-03-18T07:19:10.584Z,1100.00
2019-03-18T07:20:09.574Z,1032.00
2019-03-18T07:21:09.563Z,972.00
2019-03-18T07:22:09.563Z,988.00
2019-03-18T07:23:09.549Z,1076.00
2019-03-18T07:24:09.532Z,1336.00
2019-03-18T07:25:09.521Z,1360.00
2019-03-18T07:26:09.509Z,1188.00
2019-03-18T07:27:09.509Z,1084.00
2019-03-18T07:28:09.501Z,1404.00
2019-03-18T07:29:09.484Z,1828.00
2019-03-18T07:30:09.465Z,1756.00
2019-03-18T07:31:09.460Z,1828.00
2019-03-18T07:32:09.454Z,1912.00
2019-03-18T07:33:09.434Z,2152.00
2019-03-18T07:34:09.423Z,2196.00
2019-03-18T07:35:09.414Z,2248.00
2019-03-18T07:36:09.401Z,2212.00
2019-03-18T07:37:09.400Z,2168.00
2019-03-18T07:38:09.379Z,2172.00
2019-03-18T07:39:09.368Z,1980.00
2019-03-18T07:40:11.247Z,1896.00
2019-03-18T07:41:09.348Z,1920.00
2019-03-18T07:42:09.343Z,1752.00
2019-03-18T07:43:09.329Z,1676.00
2019-03-18T07:44:09.313Z,1560.00
2019-03-18T07:45:09.302Z,1732.00
2019-03-18T07:46:09.293Z,1856.00
2019-03-18T07:47:09.290Z,2068.00
2019-03-18T07:48:09.270Z,2124.00
2019-03-18T07:49:09.258Z,2084.00
2019-03-18T07:50:09.248Z,2036.00
2019-03-18T07:51:09.239Z,2000.00
2019-03-18T07:52:09.234Z,2088.00
2019-03-18T07:53:09.251Z,2120.00
2019-03-18T07:54:09.203Z,2088.00
2019-03-18T07:55:09.190Z,2096.00
2019-03-18T07:56:09.181Z,1748.00
2019-03-18T07:57:09.180Z,1592.00
2019-03-18T07:58:09.156Z,1344.00
2019-03-18T07:59:09.145Z,1240.00
2019-03-18T08:00:09.138Z,1328.00
2019-03-18T08:01:09.124Z,1692.00
2019-03-18T08:02:09.124Z,1604.00
2019-03-18T08:03:09.105Z,1648.00
2019-03-18T08:04:09.092Z,1848.00
2019-03-18T08:05:09.083Z,2092.00
2019-03-18T08:06:09.073Z,1520.00
2019-03-18T08:07:09.067Z,1492.00
2019-03-18T08:08:09.047Z,1980.00
2019-03-18T08:09:09.038Z,1512.00
2019-03-18T08:10:09.025Z,1760.00
2019-03-18T08:11:09.014Z,2240.00
2019-03-18T08:12:09.028Z,3060.00
2019-03-18T08:13:08.991Z,4252.00
2019-03-18T08:14:08.980Z,2108.00
2019-03-18T08:15:08.970Z,1864.00
2019-03-18T08:16:08.961Z,2120.00
2019-03-18T08:17:08.956Z,3112.00
2019-03-18T08:18:08.937Z,11132.00
2019-03-18T08:19:08.926Z,9880.00
2019-03-18T08:20:08.937Z,4588.00
2019-03-18T08:21:08.903Z,3076.00
2019-03-18T08:22:08.905Z,3296.00
2019-03-18T08:23:08.880Z,3372.00
2019-03-18T08:24:08.869Z,3372.00
2019-03-18T08:25:08.862Z,2996.00
2019-03-18T08:26:08.850Z,3152.00
2019-03-18T08:27:08.849Z,3356.00
2019-03-18T08:28:08.827Z,3184.00
2019-03-18T08:29:08.815Z,4588.00
2019-03-18T08:30:08.817Z,4932.00
2019-03-18T08:31:08.794Z,2544.00
2019-03-18T08:32:11.656Z,2960.00
2019-03-18T08:33:08.776Z,3624.00
2019-03-18T08:34:08.760Z,2704.00
2019-03-18T08:35:08.758Z,1996.00
2019-03-18T08:36:08.738Z,2064.00
2019-03-18T08:37:08.742Z,2044.00
2019-03-18T08:38:08.830Z,2100.00
2019-03-18T08:39:08.709Z,2232.00
2019-03-18T08:40:08.701Z,2568.00
2019-03-18T08:41:08.690Z,2612.00
2019-03-18T08:42:08.685Z,2748.00
2019-03-18T08:43:08.665Z,2616.00
2019-03-18T08:44:08.652Z,2504.00
2019-03-18T08:45:08.641Z,3076.00
2019-03-18T08:46:08.633Z,3684.00
2019-03-18T08:47:08.630Z,3192.00
2019-03-18T08:48:08.609Z,2644.00
2019-03-18T08:49:08.600Z,2656.00
2019-03-18T08:50:08.587Z,2416.00
2019-03-18T08:51:08.576Z,2328.00
2019-03-18T08:52:08.575Z,2392.00
2019-03-18T08:53:08.553Z,2124.00
2019-03-18T08:54:08.546Z,2160.00
2019-03-18T08:55:08.531Z,1724.00
2019-03-18T08:56:08.521Z,1684.00
2019-03-18T08:57:08.529Z,1696.00
2019-03-18T08:58:08.505Z,1544.00
2019-03-18T08:59:08.492Z,1436.00
2019-03-18T09:00:08.478Z,1592.00
2019-03-18T09:01:08.466Z,1272.00
2019-03-18T09:02:08.467Z,1060.00
2019-03-18T09:03:08.457Z,1060.00
2019-03-18T09:04:08.436Z,1032.00
2019-03-18T09:05:08.436Z,948.00
2019-03-18T09:06:08.419Z,932.00
2019-03-18T09:07:08.415Z,964.00
2019-03-18T09:08:08.390Z,1140.00
2019-03-18T09:09:08.382Z,1176.00
2019-03-18T09:10:08.371Z,1328.00
2019-03-18T09:11:08.375Z,1424.00
2019-03-18T09:12:08.384Z,1136.00
2019-03-18T09:13:08.337Z,952.00
2019-03-18T09:14:08.325Z,1052.00
2019-03-18T09:15:08.313Z,1080.00
2019-03-18T09:16:08.303Z,1020.00
2019-03-18T09:17:08.293Z,1044.00
2019-03-18T09:18:08.288Z,1356.00
2019-03-18T09:19:09.271Z,1412.00
2019-03-18T09:20:08.260Z,1324.00
2019-03-18T09:21:08.249Z,1328.00
2019-03-18T09:22:08.237Z,1448.00
2019-03-18T09:23:08.235Z,1920.00
2019-03-18T09:24:08.217Z,2980.00
2019-03-18T09:25:08.207Z,6576.00
2019-03-18T09:26:08.200Z,14860.00
2019-03-18T09:27:08.182Z,5996.00
2019-03-18T09:28:08.184Z,60192.00
2019-03-18T09:29:08.164Z,41664.00
2019-03-18T09:30:08.152Z,97472.00
2019-03-18T09:31:08.157Z,79520.00
2019-03-18T09:32:08.128Z,96512.00
2019-03-18T09:33:08.126Z,27968.00
2019-03-18T09:34:08.106Z,19072.00
2019-03-18T09:35:08.113Z,10900.00
2019-03-18T09:36:08.083Z,14496.00
2019-03-18T09:37:08.073Z,16992.00
2019-03-18T09:38:08.073Z,16384.00
2019-03-18T09:39:08.050Z,13516.00
2019-03-18T09:40:08.042Z,42688.00
2019-03-18T09:41:08.031Z,11320.00
2019-03-18T09:42:08.018Z,90624.00
2019-03-18T09:43:08.017Z,5680.00
2019-03-18T09:44:08.012Z,2944.00
2019-03-18T09:45:07.991Z,2020.00
2019-03-18T09:46:07.975Z,1928.00
2019-03-18T09:47:07.966Z,1696.00
2019-03-18T09:48:07.969Z,1392.00
2019-03-18T09:49:20.679Z,1368.00
2019-03-18T09:50:08.927Z,1540.00
2019-03-18T09:51:09.679Z,1352.00
2019-03-18T09:52:07.910Z,1032.00
2019-03-18T09:53:07.953Z,884.00
2019-03-18T09:54:07.887Z,696.00
2019-03-18T09:55:07.877Z,800.00
2019-03-18T09:56:07.864Z,1116.00
2019-03-18T09:57:07.858Z,1328.00
2019-03-18T09:58:07.845Z,1352.00
2019-03-18T09:59:07.840Z,1380.00
2019-03-18T10:00:07.820Z,1332.00
2019-03-18T10:01:07.810Z,1520.00
2019-03-18T10:02:07.808Z,1504.00
2019-03-18T10:03:07.788Z,1164.00
2019-03-18T10:04:07.785Z,1008.00
2019-03-18T10:05:07.767Z,1076.00
2019-03-18T10:06:07.753Z,1244.00
2019-03-18T10:07:07.768Z,1436.00
2019-03-18T10:08:07.731Z,1812.00
2019-03-18T10:09:07.734Z,1804.00
2019-03-18T10:10:07.712Z,1536.00
2019-03-18T10:11:07.713Z,1584.00
2019-03-18T10:12:07.690Z,1332.00
2019-03-18T10:13:07.685Z,1960.00
2019-03-18T10:14:07.713Z,3156.00
2019-03-18T10:15:07.658Z,3220.00
2019-03-18T10:16:07.645Z,2640.00
2019-03-18T10:17:09.905Z,1980.00
2019-03-18T10:18:07.622Z,1544.00
2019-03-18T10:19:07.623Z,1452.00
2019-03-18T10:20:07.603Z,1516.00
2019-03-18T10:21:07.587Z,1552.00
2019-03-18T10:22:07.576Z,1424.00
2019-03-18T10:23:07.566Z,1200.00
2019-03-18T10:24:07.571Z,1320.00
2019-03-18T10:25:07.547Z,1424.00
2019-03-18T10:26:07.534Z,1240.00
2019-03-18T10:27:07.560Z,1304.00
2019-03-18T10:28:07.515Z,1852.00
2019-03-18T10:29:07.514Z,1964.00
2019-03-18T10:30:07.489Z,2488.00
2019-03-18T10:31:07.482Z,3572.00
2019-03-18T10:32:07.469Z,5808.00
2019-03-18T10:33:07.461Z,12784.00
2019-03-18T10:34:07.471Z,11392.00
2019-03-18T10:35:07.436Z,10928.00
2019-03-18T10:36:07.424Z,19552.00
2019-03-18T10:37:07.420Z,10076.00
2019-03-18T10:38:07.402Z,23968.00
2019-03-18T10:39:07.393Z,25984.00
2019-03-18T10:40:07.487Z,24832.00
2019-03-18T10:41:07.370Z,16160.00
2019-03-18T10:42:07.359Z,10060.00
2019-03-18T10:43:07.348Z,6936.00
2019-03-18T10:44:07.337Z,5372.00
2019-03-18T10:45:07.337Z,4360.00
2019-03-18T10:46:07.321Z,4216.00
2019-03-18T10:47:07.304Z,5832.00
2019-03-18T10:48:07.298Z,5376.00
2019-03-18T10:49:07.283Z,4500.00
2019-03-18T10:50:07.283Z,5136.00
2019-03-18T10:51:07.270Z,3892.00
2019-03-18T10:52:07.282Z,2824.00
2019-03-18T10:53:07.266Z,2700.00
2019-03-18T10:54:07.228Z,3180.00
2019-03-18T10:55:07.250Z,22880.00
2019-03-18T10:56:08.283Z,2936.00
2019-03-18T10:57:07.197Z,2192.00
2019-03-18T10:58:07.192Z,1776.00
2019-03-18T10:59:07.174Z,1440.00
2019-03-18T11:00:07.177Z,1444.00
2019-03-18T11:01:07.152Z,1480.00
2019-03-18T11:02:07.141Z,1444.00
2019-03-18T11:03:07.131Z,1660.00
2019-03-18T11:04:07.120Z,1688.00
2019-03-18T11:05:08.285Z,1780.00
2019-03-18T11:06:07.102Z,2384.00
2019-03-18T11:07:07.087Z,2372.00
2019-03-18T11:08:07.081Z,1604.00
2019-03-18T11:09:07.066Z,1420.00
2019-03-18T11:10:07.058Z,1176.00
2019-03-18T11:11:07.058Z,1096.00
2019-03-18T11:12:07.038Z,1168.00
2019-03-18T11:13:08.057Z,1732.00
2019-03-18T11:14:07.009Z,3208.00
2019-03-18T11:15:07.004Z,2892.00
2019-03-18T11:16:07.001Z,6220.00
2019-03-18T11:17:06.989Z,3744.00
2019-03-18T11:18:06.969Z,2284.00
2019-03-18T11:19:06.986Z,1256.00
2019-03-18T11:20:06.944Z,1468.00
2019-03-18T11:21:06.949Z,2988.00
2019-03-18T11:22:07.010Z,12316.00
2019-03-18T11:23:06.912Z,11792.00
2019-03-18T11:24:06.901Z,7416.00
2019-03-18T11:25:06.897Z,7408.00
2019-03-18T11:26:06.889Z,7364.00
2019-03-18T11:27:06.883Z,7144.00
2019-03-18T11:28:06.873Z,7276.00
2019-03-18T11:29:07.016Z,7472.00
2019-03-18T11:30:06.838Z,7464.00
2019-03-18T11:31:06.834Z,7468.00
2019-03-18T11:32:06.815Z,7560.00
2019-03-18T11:33:06.802Z,7476.00
2019-03-18T11:34:06.790Z,7484.00
2019-03-18T11:35:06.781Z,7700.00
2019-03-18T11:36:06.778Z,8072.00
2019-03-18T11:37:06.766Z,9468.00
2019-03-18T11:38:06.747Z,8036.00
2019-03-18T11:39:06.737Z,10304.00
2019-03-18T11:40:06.729Z,7064.00
2019-03-18T11:41:06.726Z,7492.00
2019-03-18T11:42:06.707Z,7204.00
2019-03-18T11:43:06.690Z,7148.00
2019-03-18T11:44:06.684Z,8396.00
2019-03-18T11:45:08.198Z,7500.00
2019-03-18T11:46:06.736Z,8128.00
2019-03-18T11:47:06.648Z,6068.00
2019-03-18T11:48:06.638Z,4996.00
2019-03-18T11:49:06.628Z,3952.00
2019-03-18T11:50:11.471Z,2964.00
2019-03-18T11:51:07.614Z,2808.00
2019-03-18T11:52:06.594Z,2660.00
2019-03-18T11:53:14.237Z,2548.00
2019-03-18T11:54:07.574Z,2136.00
2019-03-18T11:55:06.563Z,1612.00
2019-03-18T11:56:06.576Z,1336.00
2019-03-18T11:57:06.544Z,1292.00
2019-03-18T11:58:06.527Z,1412.00
2019-03-18T11:59:06.517Z,1484.00
2019-03-18T12:00:06.507Z,1472.00
2019-03-18T12:01:06.504Z,1788.00
2019-03-18T12:02:06.485Z,4608.00
2019-03-18T12:03:06.474Z,5188.00
2019-03-18T12:04:06.462Z,7444.00
2019-03-18T12:05:06.450Z,5968.00
2019-03-18T12:06:06.451Z,4740.00
2019-03-18T12:07:06.425Z,4340.00
2019-03-18T12:08:06.415Z,4360.00
2019-03-18T12:09:06.406Z,4424.00
2019-03-18T12:10:06.395Z,4208.00
2019-03-18T12:11:06.394Z,6604.00
2019-03-18T12:12:06.375Z,23520.00
2019-03-18T12:13:06.360Z,15360.00
2019-03-18T12:14:06.394Z,21312.00
2019-03-18T12:15:06.336Z,24224.00
2019-03-18T12:16:06.341Z,24736.00
2019-03-18T12:17:06.315Z,21152.00
2019-03-18T12:18:06.322Z,24064.00
2019-03-18T12:19:06.294Z,21472.00
2019-03-18T12:20:06.289Z,5128.00
2019-03-18T12:21:06.282Z,4612.00
2019-03-18T12:22:06.262Z,8424.00
2019-03-18T12:23:06.253Z,6512.00
2019-03-18T12:24:06.251Z,6080.00
2019-03-18T12:25:06.230Z,5464.00
2019-03-18T12:26:06.227Z,7236.00
2019-03-18T12:27:06.206Z,5772.00
2019-03-18T12:28:06.208Z,3884.00
2019-03-18T12:29:06.187Z,3332.00
2019-03-18T12:30:06.174Z,3200.00
2019-03-18T12:31:06.172Z,2668.00
2019-03-18T12:32:06.153Z,2160.00
2019-03-18T12:33:06.140Z,2236.00
2019-03-18T12:34:06.128Z,2132.00
2019-03-18T12:35:06.162Z,1800.00
2019-03-18T12:36:06.120Z,1240.00
2019-03-18T12:37:06.113Z,848.00